createdAt,value
2023-05-02T00:02:05.649Z,12.96
2023-05-02T00:04:37.118Z,12.95
2023-05-02T00:07:08.077Z,12.95
2023-05-02T00:09:38.946Z,12.93
2023-05-02T00:12:09.812Z,12.92
2023-05-02T00:14:40.853Z,12.91
2023-05-02T00:17:18.549Z,12.90
2023-05-02T00:19:48.074Z,12.90
2023-05-02T00:22:18.920Z,12.90
2023-05-02T00:24:49.570Z,12.90
2023-05-02T00:27:20.485Z,12.88
2023-05-02T00:29:52.335Z,12.88
2023-05-02T00:32:23.476Z,12.86
2023-05-02T00:34:54.612Z,12.86
2023-05-02T00:37:29.530Z,12.86
2023-05-02T00:40:01.494Z,12.86
2023-05-02T00:42:36.150Z,12.87
2023-05-02T00:45:08.541Z,12.88
2023-05-02T00:47:39.200Z,12.86
2023-05-02T00:50:11.590Z,12.84
2023-05-02T00:52:42.265Z,12.83
2023-05-02T00:55:13.192Z,12.81
2023-05-02T00:57:44.150Z,12.79
2023-05-02T01:00:16.367Z,12.75
2023-05-02T01:02:54.538Z,12.72
2023-05-02T01:05:34.315Z,12.66
2023-05-02T01:08:15.172Z,12.60
2023-05-02T01:10:53.798Z,12.53
2023-05-02T01:13:29.400Z,12.45
2023-05-02T01:16:03.692Z,12.42
2023-05-02T01:18:37.738Z,12.39
2023-05-02T01:21:10.859Z,12.35
2023-05-02T01:23:47.712Z,12.34
2023-05-02T01:26:25.246Z,12.32
2023-05-02T01:29:01.608Z,12.32
2023-05-02T01:31:36.639Z,12.29
2023-05-02T01:34:10.890Z,12.27
2023-05-02T01:36:46.674Z,12.23
2023-05-02T01:39:22.254Z,12.20
2023-05-02T01:41:55.739Z,12.19
2023-05-02T01:44:28.255Z,12.18
2023-05-02T01:47:01.683Z,12.17
2023-05-02T01:49:34.870Z,12.17
2023-05-02T01:52:10.819Z,12.17
2023-05-02T01:54:43.941Z,12.17
2023-05-02T01:57:16.681Z,12.16
2023-05-02T01:59:48.748Z,12.17
2023-05-02T02:02:20.839Z,12.16
2023-05-02T02:04:53.602Z,12.14
2023-05-02T02:07:24.858Z,12.16
2023-05-02T02:09:55.559Z,12.18
2023-05-02T02:12:29.924Z,12.20
2023-05-02T02:15:04.922Z,12.20
2023-05-02T02:17:41.603Z,12.17
2023-05-02T02:20:16.463Z,12.13
2023-05-02T02:22:48.823Z,12.08
2023-05-02T02:25:21.029Z,12.05
2023-05-02T02:27:52.768Z,12.02
2023-05-02T02:30:23.753Z,12.00
2023-05-02T02:32:54.700Z,11.98
2023-05-02T02:35:27.380Z,11.96
2023-05-02T02:38:04.378Z,11.94
2023-05-02T02:40:48.748Z,11.93
2023-05-02T02:43:25.222Z,11.92
2023-05-02T02:46:09.489Z,11.90
2023-05-02T02:48:46.258Z,11.86
2023-05-02T02:51:26.990Z,11.82
2023-05-02T02:54:05.920Z,11.80
2023-05-02T02:56:43.353Z,11.76
2023-05-02T02:59:20.634Z,11.72
2023-05-02T03:02:02.651Z,11.69
2023-05-02T03:04:35.296Z,11.66
2023-05-02T03:07:06.419Z,11.62
2023-05-02T03:09:48.523Z,11.59
2023-05-02T03:12:19.733Z,11.57
2023-05-02T03:14:51.724Z,11.54
2023-05-02T03:17:24.951Z,11.52
2023-05-02T03:19:57.598Z,11.50
2023-05-02T03:22:28.392Z,11.48
2023-05-02T03:24:59.039Z,11.47
2023-05-02T03:27:29.911Z,11.45
2023-05-02T03:30:01.047Z,11.45
2023-05-02T03:32:31.950Z,11.44
2023-05-02T03:35:02.686Z,11.42
2023-05-02T03:37:34.862Z,11.41
2023-05-02T03:40:07.502Z,11.38
2023-05-02T03:42:41.353Z,11.35
2023-05-02T03:45:13.398Z,11.32
2023-05-02T03:47:44.524Z,11.31
2023-05-02T03:50:15.301Z,11.31
2023-05-02T03:52:46.463Z,11.31
2023-05-02T03:55:17.121Z,11.30
2023-05-02T03:57:48.022Z,11.31
2023-05-02T04:00:19.506Z,11.31
2023-05-02T04:02:50.462Z,11.31
2023-05-02T04:05:22.186Z,11.31
2023-05-02T04:07:53.171Z,11.32
2023-05-02T04:10:24.834Z,11.31
2023-05-02T04:12:55.919Z,11.34
2023-05-02T04:15:26.585Z,11.34
2023-05-02T04:17:58.785Z,11.35
2023-05-02T04:20:29.938Z,11.35
2023-05-02T04:23:01.018Z,11.36
2023-05-02T04:25:32.434Z,11.33
2023-05-02T04:28:03.358Z,11.35
2023-05-02T04:30:34.160Z,11.36
2023-05-02T04:33:04.963Z,11.36
2023-05-02T04:35:35.732Z,11.36
2023-05-02T04:38:06.633Z,11.36
2023-05-02T04:40:37.437Z,11.38
2023-05-02T04:43:08.552Z,11.39
2023-05-02T04:45:39.758Z,11.40
2023-05-02T04:48:11.036Z,11.40
2023-05-02T04:50:41.798Z,11.41
2023-05-02T04:53:12.688Z,11.42
2023-05-02T04:55:44.082Z,11.43
2023-05-02T04:58:15.859Z,11.43
2023-05-02T05:00:46.587Z,11.42
2023-05-02T05:03:17.648Z,11.41
2023-05-02T05:05:48.415Z,11.38
2023-05-02T05:08:19.010Z,11.36
2023-05-02T05:10:49.676Z,11.35
2023-05-02T05:13:20.420Z,11.34
2023-05-02T05:15:51.782Z,11.34
2023-05-02T05:18:22.536Z,11.33
2023-05-02T05:20:54.058Z,11.32
2023-05-02T05:23:25.060Z,11.32
2023-05-02T05:25:56.572Z,11.31
2023-05-02T05:28:27.438Z,11.28
2023-05-02T05:30:58.130Z,11.27
2023-05-02T05:33:29.355Z,11.25
2023-05-02T05:36:06.937Z,11.20
2023-05-02T05:38:38.503Z,11.16
2023-05-02T05:41:09.577Z,11.11
2023-05-02T05:43:40.338Z,11.06
2023-05-02T05:46:11.048Z,11.01
2023-05-02T05:48:41.873Z,10.93
2023-05-02T05:51:12.569Z,10.82
2023-05-02T05:53:43.226Z,10.71
2023-05-02T05:56:15.335Z,10.63
2023-05-02T05:58:46.497Z,10.58
2023-05-02T06:01:17.752Z,10.54
2023-05-02T06:03:49.710Z,10.51
2023-05-02T06:06:20.633Z,10.49
2023-05-02T06:08:51.583Z,10.48
2023-05-02T06:11:22.554Z,10.43
2023-05-02T06:13:54.084Z,10.32
2023-05-02T06:16:24.814Z,10.18
2023-05-02T06:18:55.695Z,10.02
2023-05-02T06:21:26.276Z,9.88
2023-05-02T06:23:56.976Z,9.73
2023-05-02T06:26:27.978Z,9.62
2023-05-02T06:28:59.332Z,9.53
2023-05-02T06:31:30.116Z,9.43
2023-05-02T06:34:01.181Z,9.35
2023-05-02T06:36:31.890Z,9.30
2023-05-02T06:39:02.650Z,9.27
2023-05-02T06:41:33.628Z,9.26
2023-05-02T06:44:05.698Z,9.25
2023-05-02T06:46:36.773Z,9.25
2023-05-02T06:49:13.299Z,9.23
2023-05-02T06:51:44.751Z,9.22
2023-05-02T06:54:15.871Z,9.21
2023-05-02T06:56:46.565Z,9.22
2023-05-02T06:59:17.744Z,9.24
2023-05-02T07:01:48.402Z,9.24
2023-05-02T07:04:20.049Z,9.22
2023-05-02T07:06:51.764Z,9.18
2023-05-02T07:09:22.380Z,9.13
2023-05-02T07:11:53.497Z,9.11
2023-05-02T07:14:24.487Z,9.14
2023-05-02T07:16:56.163Z,9.17
2023-05-02T07:19:26.851Z,9.25
2023-05-02T07:21:57.402Z,9.32
2023-05-02T07:24:28.412Z,9.38
2023-05-02T07:26:59.068Z,9.39
2023-05-02T07:29:30.148Z,9.40
2023-05-02T07:32:01.455Z,9.41
2023-05-02T07:34:32.650Z,9.40
2023-05-02T07:37:03.230Z,9.41
2023-05-02T07:39:35.859Z,9.42
2023-05-02T07:42:07.095Z,9.44
2023-05-02T07:44:37.590Z,9.45
2023-05-02T07:47:09.071Z,9.50
2023-05-02T07:49:39.635Z,9.55
2023-05-02T07:52:10.319Z,9.60
2023-05-02T07:54:41.249Z,9.67
2023-05-02T07:57:13.204Z,9.70
2023-05-02T07:59:44.007Z,9.75
2023-05-02T08:02:14.795Z,9.81
2023-05-02T08:04:45.421Z,9.90
2023-05-02T08:07:16.836Z,9.98
2023-05-02T08:09:47.361Z,10.07
2023-05-02T08:12:18.283Z,10.16
2023-05-02T08:14:49.783Z,10.23
2023-05-02T08:17:21.369Z,10.28
2023-05-02T08:19:52.065Z,10.35
2023-05-02T08:22:22.703Z,10.36
2023-05-02T08:24:53.268Z,10.34
2023-05-02T08:27:23.917Z,10.35
2023-05-02T08:29:54.875Z,10.38
2023-05-02T08:32:25.642Z,10.38
2023-05-02T08:34:58.931Z,10.41
2023-05-02T08:37:29.636Z,10.44
2023-05-02T08:40:01.304Z,10.45
2023-05-02T08:42:36.331Z,10.51
2023-05-02T08:45:09.542Z,10.57
2023-05-02T08:47:41.883Z,10.60
2023-05-02T08:50:13.451Z,10.63
2023-05-02T08:52:45.347Z,10.67
2023-05-02T08:55:17.045Z,10.72
2023-05-02T08:57:47.640Z,10.77
2023-05-02T09:00:20.345Z,10.79
2023-05-02T09:03:06.606Z,10.82
2023-05-02T09:05:43.143Z,10.84
2023-05-02T09:08:13.769Z,10.86
2023-05-02T09:10:45.130Z,10.89
2023-05-02T09:13:36.701Z,10.98
2023-05-02T09:16:09.546Z,11.05
2023-05-02T09:18:42.104Z,11.09
2023-05-02T09:21:15.312Z,11.08
2023-05-02T09:23:49.575Z,11.14
2023-05-02T09:26:22.296Z,11.18
2023-05-02T09:28:54.214Z,11.25
2023-05-02T09:31:49.481Z,11.34
2023-05-02T09:34:18.502Z,11.43
2023-05-02T09:36:51.980Z,11.48
2023-05-02T09:39:25.786Z,11.50
2023-05-02T09:41:57.488Z,11.52
2023-05-02T09:44:37.147Z,11.57
2023-05-02T09:47:09.274Z,11.64
2023-05-02T09:49:45.715Z,11.67
2023-05-02T09:52:18.317Z,11.65
2023-05-02T09:54:50.669Z,11.57
2023-05-02T09:57:21.917Z,11.52
2023-05-02T09:59:59.775Z,11.49
2023-05-02T10:02:31.459Z,11.50
2023-05-02T10:05:04.717Z,11.53
2023-05-02T10:07:36.775Z,11.56
2023-05-02T10:10:13.544Z,11.60
2023-05-02T10:12:44.964Z,11.68
2023-05-02T10:15:18.376Z,11.76
2023-05-02T10:17:52.983Z,11.86
2023-05-02T10:20:28.696Z,11.93
2023-05-02T10:23:02.472Z,12.01
2023-05-02T10:25:34.938Z,12.14
2023-05-02T10:28:06.609Z,12.23
2023-05-02T10:30:38.851Z,12.28
2023-05-02T10:33:09.661Z,12.32
2023-05-02T10:35:44.867Z,12.35
2023-05-02T10:38:19.165Z,12.36
2023-05-02T10:41:00.064Z,12.38
2023-05-02T10:43:36.347Z,12.40
2023-05-02T10:46:33.906Z,12.41
2023-05-02T10:49:06.508Z,12.45
2023-05-02T10:51:38.616Z,12.50
2023-05-02T10:54:29.223Z,12.60
2023-05-02T10:57:08.398Z,12.72
2023-05-02T10:59:40.997Z,12.83
2023-05-02T11:02:51.668Z,12.89
2023-05-02T11:05:22.863Z,12.95
2023-05-02T11:08:32.865Z,12.99
2023-05-02T11:11:42.589Z,13.04
2023-05-02T11:14:33.798Z,13.10
2023-05-02T11:17:11.621Z,13.16
2023-05-02T11:20:30.236Z,13.20
2023-05-02T11:23:25.833Z,13.16
2023-05-02T11:26:00.449Z,13.11
2023-05-02T11:28:47.778Z,13.09
2023-05-02T11:32:05.844Z,13.12
2023-05-02T11:34:50.797Z,13.13
2023-05-02T11:37:22.301Z,13.16
2023-05-02T11:39:53.745Z,13.19
2023-05-02T11:42:34.978Z,13.19
2023-05-02T11:45:06.572Z,13.23
2023-05-02T11:47:37.312Z,13.30
2023-05-02T11:50:10.155Z,13.39
2023-05-02T11:52:42.257Z,13.44
2023-05-02T11:55:15.031Z,13.47
2023-05-02T11:57:45.949Z,13.49
2023-05-02T12:00:18.409Z,13.44
2023-05-02T12:02:49.440Z,13.46
2023-05-02T12:05:30.676Z,13.48
2023-05-02T12:08:02.567Z,13.50
2023-05-02T12:10:40.232Z,13.54
2023-05-02T12:13:12.273Z,13.62
2023-05-02T12:15:43.285Z,13.71
2023-05-02T12:18:15.344Z,13.81
2023-05-02T12:20:46.943Z,13.90
2023-05-02T12:23:18.170Z,13.97
2023-05-02T12:25:49.170Z,14.02
2023-05-02T12:28:20.982Z,14.06
2023-05-02T12:30:53.011Z,14.09
2023-05-02T12:33:23.803Z,14.14
2023-05-02T12:35:54.483Z,14.15
2023-05-02T12:38:25.952Z,14.08
2023-05-02T12:40:57.705Z,13.91
2023-05-02T12:43:28.759Z,13.71
2023-05-02T12:46:13.183Z,13.62
2023-05-02T12:48:46.177Z,13.57
2023-05-02T12:51:28.648Z,13.62
2023-05-02T12:53:59.476Z,13.75
2023-05-02T12:56:32.517Z,13.91
2023-05-02T12:59:05.322Z,13.98
2023-05-02T13:01:36.966Z,13.98
2023-05-02T13:04:07.670Z,13.90
2023-05-02T13:06:38.544Z,13.76
2023-05-02T13:09:09.103Z,13.69
2023-05-02T13:11:40.369Z,13.70
2023-05-02T13:14:11.567Z,13.76
2023-05-02T13:16:42.383Z,13.77
2023-05-02T13:19:13.320Z,13.73
2023-05-02T13:21:43.937Z,13.71
2023-05-02T13:24:18.725Z,13.67
2023-05-02T13:26:49.518Z,13.64
2023-05-02T13:29:20.021Z,13.61
2023-05-02T13:31:50.840Z,13.61
2023-05-02T13:34:21.461Z,13.62
2023-05-02T13:36:52.486Z,13.62
2023-05-02T13:39:23.374Z,13.64
2023-05-02T13:41:53.871Z,13.68
2023-05-02T13:44:24.878Z,13.76
2023-05-02T13:46:55.533Z,13.81
2023-05-02T13:49:26.947Z,13.81
2023-05-02T13:51:58.196Z,13.78
2023-05-02T13:54:29.081Z,13.74
2023-05-02T13:56:59.919Z,13.72
2023-05-02T13:59:30.536Z,13.69
2023-05-02T14:02:01.431Z,13.64
2023-05-02T14:04:32.227Z,13.59
2023-05-02T14:07:02.861Z,13.56
2023-05-02T14:09:33.475Z,13.53
2023-05-02T14:12:04.395Z,13.56
2023-05-02T14:14:36.095Z,13.53
2023-05-02T14:17:07.112Z,13.45
2023-05-02T14:19:38.278Z,13.40
2023-05-02T14:22:09.337Z,13.36
2023-05-02T14:24:41.079Z,13.31
2023-05-02T14:27:13.058Z,13.25
2023-05-02T14:29:44.078Z,13.22
2023-05-02T14:32:15.393Z,13.15
2023-05-02T14:34:46.169Z,13.05
2023-05-02T14:37:16.903Z,12.97
2023-05-02T14:39:51.582Z,12.89
2023-05-02T14:42:23.730Z,12.88
2023-05-02T14:44:54.712Z,12.82
2023-05-02T14:47:27.396Z,12.74
2023-05-02T14:49:58.008Z,12.63
2023-05-02T14:52:28.859Z,12.55
2023-05-02T14:55:02.151Z,12.46
2023-05-02T14:57:32.790Z,12.37
2023-05-02T15:00:05.727Z,12.30
2023-05-02T15:02:37.091Z,12.27
2023-05-02T15:05:12.325Z,12.35
2023-05-02T15:07:43.171Z,12.48
2023-05-02T15:10:14.078Z,12.61
2023-05-02T15:12:46.812Z,12.72
2023-05-02T15:15:17.924Z,12.80
2023-05-02T15:17:48.977Z,12.88
2023-05-02T15:20:19.931Z,12.97
2023-05-02T15:22:50.589Z,13.09
2023-05-02T15:25:21.400Z,13.22
2023-05-02T15:27:52.743Z,13.37
2023-05-02T15:30:23.625Z,13.47
2023-05-02T15:32:54.606Z,13.51
2023-05-02T15:35:26.166Z,13.49
2023-05-02T15:37:56.983Z,13.42
2023-05-02T15:40:28.534Z,13.44
2023-05-02T15:42:59.535Z,13.38
2023-05-02T15:45:30.486Z,13.28
2023-05-02T15:48:01.119Z,13.14
2023-05-02T15:50:32.030Z,13.02
2023-05-02T15:53:03.349Z,12.90
2023-05-02T15:55:35.244Z,12.79
2023-05-02T15:58:06.235Z,12.68
2023-05-02T16:00:36.850Z,12.61
2023-05-02T16:03:07.461Z,12.54
2023-05-02T16:05:38.380Z,12.47
2023-05-02T16:08:09.013Z,12.40
2023-05-02T16:10:40.446Z,12.35
2023-05-02T16:13:11.398Z,12.32
2023-05-02T16:15:42.249Z,12.29
2023-05-02T16:18:13.031Z,12.23
2023-05-02T16:20:43.949Z,12.19
2023-05-02T16:23:14.863Z,12.18
2023-05-02T16:25:45.370Z,12.12
2023-05-02T16:28:16.090Z,12.07
2023-05-02T16:30:46.921Z,12.03
2023-05-02T16:33:17.607Z,11.98
2023-05-02T16:35:48.886Z,11.91
2023-05-02T16:38:19.397Z,11.87
2023-05-02T16:40:50.298Z,11.81
2023-05-02T16:43:21.046Z,11.77
2023-05-02T16:45:59.668Z,11.72
2023-05-02T16:48:30.711Z,11.68
2023-05-02T16:51:04.093Z,11.63
2023-05-02T16:53:35.857Z,11.63
2023-05-02T16:56:07.473Z,11.62
2023-05-02T16:58:38.419Z,11.61
2023-05-02T17:01:09.407Z,11.57
2023-05-02T17:03:40.602Z,11.52
2023-05-02T17:06:11.425Z,11.48
2023-05-02T17:08:42.751Z,11.46
2023-05-02T17:11:13.416Z,11.45
2023-05-02T17:13:44.722Z,11.43
2023-05-02T17:16:15.857Z,11.42
2023-05-02T17:18:46.739Z,11.39
2023-05-02T17:21:17.647Z,11.33
2023-05-02T17:23:48.157Z,11.30
2023-05-02T17:26:18.686Z,11.26
2023-05-02T17:28:50.382Z,11.22
2023-05-02T17:31:21.002Z,11.17
2023-05-02T17:33:52.348Z,11.13
2023-05-02T17:36:22.906Z,11.13
2023-05-02T17:38:53.503Z,11.08
2023-05-02T17:41:24.090Z,11.05
2023-05-02T17:43:54.998Z,11.06
2023-05-02T17:46:25.860Z,11.03
2023-05-02T17:48:56.502Z,10.97
2023-05-02T17:51:27.212Z,10.93
2023-05-02T17:53:57.720Z,10.89
2023-05-02T17:56:28.452Z,10.84
2023-05-02T17:59:00.498Z,10.81
2023-05-02T18:01:31.669Z,10.77
2023-05-02T18:04:04.095Z,10.73
2023-05-02T18:06:35.062Z,10.70
2023-05-02T18:09:05.894Z,10.68
2023-05-02T18:11:37.549Z,10.63
2023-05-02T18:14:08.314Z,10.59
2023-05-02T18:16:39.086Z,10.57
2023-05-02T18:19:10.058Z,10.54
2023-05-02T18:21:41.224Z,10.51
2023-05-02T18:24:12.028Z,10.50
2023-05-02T18:26:43.074Z,10.47
2023-05-02T18:29:13.956Z,10.45
2023-05-02T18:31:46.571Z,10.42
2023-05-02T18:34:17.143Z,10.42
2023-05-02T18:36:47.749Z,10.42
2023-05-02T18:39:21.434Z,10.41
2023-05-02T18:41:52.263Z,10.40
2023-05-02T18:44:22.722Z,10.40
2023-05-02T18:46:53.317Z,10.39
2023-05-02T18:49:24.136Z,10.36
2023-05-02T18:51:55.567Z,10.35
2023-05-02T18:54:27.820Z,10.33
2023-05-02T18:56:58.671Z,10.30
2023-05-02T18:59:29.163Z,10.28
2023-05-02T19:02:00.921Z,10.27
2023-05-02T19:04:34.400Z,10.25
2023-05-02T19:07:04.958Z,10.22
2023-05-02T19:09:36.241Z,10.17
2023-05-02T19:12:07.857Z,10.12
2023-05-02T19:14:39.620Z,10.07
2023-05-02T19:17:10.222Z,10.02
2023-05-02T19:19:41.730Z,9.97
2023-05-02T19:22:13.863Z,9.93
2023-05-02T19:24:44.590Z,9.90
2023-05-02T19:27:15.721Z,9.87
2023-05-02T19:29:46.214Z,9.82
2023-05-02T19:32:16.826Z,9.79
2023-05-02T19:34:50.884Z,9.76
2023-05-02T19:37:22.988Z,9.72
2023-05-02T19:39:55.143Z,9.68
2023-05-02T19:42:27.399Z,9.65
2023-05-02T19:45:00.204Z,9.61
2023-05-02T19:47:33.974Z,9.57
2023-05-02T19:50:08.462Z,9.53
2023-05-02T19:52:41.936Z,9.47
2023-05-02T19:55:16.712Z,9.43
2023-05-02T19:57:49.388Z,9.39
2023-05-02T20:00:22.310Z,9.35
2023-05-02T20:02:53.263Z,9.32
2023-05-02T20:05:24.069Z,9.30
2023-05-02T20:07:54.614Z,9.29
2023-05-02T20:10:26.294Z,9.30
2023-05-02T20:12:56.751Z,9.30
2023-05-02T20:15:27.987Z,9.30
2023-05-02T20:17:58.808Z,9.31
2023-05-02T20:20:29.762Z,9.30
2023-05-02T20:23:00.438Z,9.29
2023-05-02T20:25:31.130Z,9.26
2023-05-02T20:28:01.981Z,9.20
2023-05-02T20:30:33.577Z,9.17
2023-05-02T20:33:14.964Z,9.11
2023-05-02T20:35:54.034Z,9.08
2023-05-02T20:38:24.868Z,9.04
2023-05-02T20:40:55.630Z,9.00
2023-05-02T20:43:32.175Z,8.99
2023-05-02T20:46:11.953Z,8.96
2023-05-02T20:48:42.859Z,8.93
2023-05-02T20:51:13.551Z,8.91
2023-05-02T20:53:44.816Z,8.89
2023-05-02T20:56:15.840Z,8.88
2023-05-02T20:58:46.473Z,8.86
2023-05-02T21:01:17.673Z,8.82
2023-05-02T21:03:48.152Z,8.83
2023-05-02T21:06:19.718Z,8.82
2023-05-02T21:08:50.991Z,8.79
2023-05-02T21:11:21.964Z,8.77
2023-05-02T21:13:52.890Z,8.75
2023-05-02T21:16:23.634Z,8.72
2023-05-02T21:18:55.065Z,8.67
2023-05-02T21:21:26.478Z,8.64
2023-05-02T21:23:58.515Z,8.59
2023-05-02T21:26:29.079Z,8.53
2023-05-02T21:29:00.211Z,8.46
2023-05-02T21:31:32.731Z,8.41
2023-05-02T21:34:03.611Z,8.37
2023-05-02T21:36:35.224Z,8.32
2023-05-02T21:39:06.474Z,8.26
2023-05-02T21:41:37.635Z,8.20
2023-05-02T21:44:11.350Z,8.16
2023-05-02T21:46:42.030Z,8.09
2023-05-02T21:49:13.259Z,8.04
2023-05-02T21:51:44.368Z,7.97
2023-05-02T21:54:14.941Z,7.88
2023-05-02T21:56:45.989Z,7.84
2023-05-02T21:59:16.727Z,7.80
2023-05-02T22:01:47.357Z,7.76
2023-05-02T22:04:18.284Z,7.72
2023-05-02T22:06:53.202Z,7.67
2023-05-02T22:09:23.916Z,7.65
2023-05-02T22:11:54.936Z,7.62
2023-05-02T22:14:33.667Z,7.60
2023-05-02T22:17:12.667Z,7.56
2023-05-02T22:19:43.403Z,7.52
2023-05-02T22:22:14.362Z,7.48
2023-05-02T22:24:45.376Z,7.45
2023-05-02T22:27:16.210Z,7.42
2023-05-02T22:29:46.765Z,7.39
2023-05-02T22:32:17.394Z,7.35
2023-05-02T22:34:48.463Z,7.32
2023-05-02T22:37:19.066Z,7.30
2023-05-02T22:39:49.931Z,7.28
2023-05-02T22:42:21.426Z,7.28
2023-05-02T22:44:54.676Z,7.26
2023-05-02T22:47:26.810Z,7.24
2023-05-02T22:49:59.584Z,7.22
2023-05-02T22:52:30.658Z,7.20
2023-05-02T22:55:01.256Z,7.16
2023-05-02T22:57:31.947Z,7.13
2023-05-02T23:00:02.896Z,7.09
2023-05-02T23:02:35.526Z,7.05
2023-05-02T23:05:07.546Z,7.03
2023-05-02T23:07:38.229Z,7.01
2023-05-02T23:10:10.965Z,6.98
2023-05-02T23:12:42.000Z,6.96
2023-05-02T23:15:13.268Z,6.92
2023-05-02T23:17:44.212Z,6.90
2023-05-02T23:20:19.616Z,6.85
2023-05-02T23:22:51.360Z,6.82
2023-05-02T23:25:24.362Z,6.78
2023-05-02T23:27:55.392Z,6.76
2023-05-02T23:30:25.988Z,6.73
2023-05-02T23:32:57.625Z,6.72
2023-05-02T23:35:28.880Z,6.70
2023-05-02T23:38:01.889Z,6.68
2023-05-02T23:40:32.902Z,6.67
2023-05-02T23:43:03.638Z,6.66
2023-05-02T23:45:34.434Z,6.65
2023-05-02T23:48:05.939Z,6.63
2023-05-02T23:50:36.923Z,6.62
2023-05-02T23:53:08.409Z,6.59
2023-05-02T23:55:39.222Z,6.56
2023-05-02T23:58:10.192Z,6.53
